Time;durP1;ratioP1;P1;durP2;ratioP2;P2;SDS_P1;SDS_P2;PMS_P1;PMS_P2;Temp;Humidity;BMP_temperature;BMP_pressure;BME280_temperature;BME280_humidity;BME280_pressure;Samples;Min_cycle;Max_cycle;Signal;HPM_P1;HPM_P2
2022/01/26 00:06:23;;;;;;;20.63;8.63;;;;;;;-5.98;100.00;94181.88;2109103;28;20028;-81
2022/01/26 00:07:24;;;;;;;15.98;8.50;;;;;;;-6.15;100.00;94185.00;2099919;28;20031;-81
2022/01/26 00:08:26;;;;;;;17.15;8.27;;;;;;;-6.20;100.00;94187.69;2123825;27;20101;-80
2022/01/26 00:09:28;;;;;;;16.17;8.55;;;;;;;-6.14;100.00;94182.16;2131981;27;20015;-80
2022/01/26 00:10:30;;;;;;;14.20;8.13;;;;;;;-6.17;100.00;94181.94;2114950;27;20476;-80
2022/01/26 00:11:32;;;;;;;15.77;9.32;;;;;;;-6.24;100.00;94184.88;2115215;27;20054;-80
2022/01/26 00:12:33;;;;;;;14.27;8.27;;;;;;;-6.20;100.00;94183.25;2115225;28;20384;-80
2022/01/26 00:13:34;;;;;;;16.08;8.25;;;;;;;-6.23;100.00;94183.06;2106887;28;20012;-80
2022/01/26 00:14:42;;;;;;;13.13;8.35;;;;;;;-6.24;100.00;94177.09;2106542;28;20110;-80
2022/01/26 00:15:43;;;;;;;13.05;7.97;;;;;;;-6.21;100.00;94178.34;2108846;27;20059;-81
2022/01/26 00:16:45;;;;;;;15.73;8.45;;;;;;;-6.25;100.00;94177.38;2123543;27;20037;-80
2022/01/26 00:17:46;;;;;;;19.58;9.65;;;;;;;-6.24;100.00;94178.91;2115270;28;20027;-80
2022/01/26 00:18:47;;;;;;;18.27;9.05;;;;;;;-6.26;100.00;94181.03;2106751;28;20047;-80
2022/01/26 00:19:59;;;;;;;13.13;7.60;;;;;;;-6.26;100.00;94174.00;2123461;27;20015;-80
2022/01/26 00:21:09;;;;;;;12.15;7.65;;;;;;;-6.24;100.00;94171.88;2101545;28;20040;-80
2022/01/26 00:22:24;;;;;;;13.38;7.88;;;;;;;-6.22;100.00;94174.22;2106608;28;20024;-81
2022/01/26 00:26:27;;;;;;;16.10;8.32;;;;;;;-6.26;100.00;94179.22;2106796;28;20026;-80
2022/01/26 00:27:10;;;;;;;15.23;8.00;;;;;;;-6.21;100.00;94184.31;2102448;27;20839;-80
2022/01/26 00:29:47;;;;;;;12.65;7.28;;;;;;;-6.15;100.00;94182.41;2117854;27;20023;-81
2022/01/26 00:33:06;;;;;;;12.50;7.40;;;;;;;-6.17;100.00;94184.53;2125025;27;20209;-80
2022/01/26 00:38:53;;;;;;;14.63;8.07;;;;;;;-6.41;100.00;94189.81;2109320;28;20024;-81
2022/01/26 00:40:06;;;;;;;10.68;6.72;;;;;;;-6.39;100.00;94191.09;2106291;28;20454;-80
2022/01/26 00:41:32;;;;;;;13.45;7.32;;;;;;;-6.33;100.00;94186.59;2099699;28;20023;-80
2022/01/26 00:42:41;;;;;;;13.43;7.28;;;;;;;-6.20;100.00;94195.50;2110994;27;20030;-80
2022/01/26 00:43:56;;;;;;;18.00;8.15;;;;;;;-6.30;100.00;94187.88;2109974;27;20020;-80
2022/01/26 00:44:58;;;;;;;13.70;7.05;;;;;;;-6.46;100.00;94190.66;2116561;27;20051;-80
2022/01/26 00:46:00;;;;;;;13.75;7.80;;;;;;;-6.56;100.00;94195.25;2113764;28;20028;-80
2022/01/26 00:47:07;;;;;;;11.52;7.65;;;;;;;-6.61;100.00;94196.09;2099770;27;20016;-80
2022/01/26 00:48:08;;;;;;;12.13;7.75;;;;;;;-6.56;100.00;94193.44;2114042;27;20428;-81
2022/01/26 00:49:09;;;;;;;14.23;8.00;;;;;;;-6.72;100.00;94194.69;2117514;27;20499;-80
2022/01/26 00:50:11;;;;;;;12.15;7.55;;;;;;;-6.74;100.00;94179.38;2119709;27;20035;-81
2022/01/26 00:51:30;;;;;;;12.95;7.13;;;;;;;-6.70;100.00;94185.56;2108835;27;20442;-80
2022/01/26 00:52:42;;;;;;;12.88;7.75;;;;;;;-6.71;100.00;94183.25;2114015;27;20030;-80
2022/01/26 00:53:58;;;;;;;15.57;7.82;;;;;;;-6.71;100.00;94178.06;2117440;27;20076;-80
2022/01/26 00:54:59;;;;;;;13.27;7.75;;;;;;;-6.74;100.00;94178.59;2115762;27;20030;-80
2022/01/26 00:56:03;;;;;;;12.48;7.40;;;;;;;-6.77;100.00;94169.53;2113384;28;20023;-80
2022/01/26 00:57:04;;;;;;;14.77;7.00;;;;;;;-6.78;100.00;94175.78;2107912;28;20120;-80
2022/01/26 00:58:05;;;;;;;14.82;7.88;;;;;;;-6.75;100.00;94170.03;2110334;28;20027;-80
2022/01/26 00:59:06;;;;;;;16.23;7.65;;;;;;;-6.71;100.00;94171.03;2102041;28;20053;-80
2022/01/26 01:00:11;;;;;;;14.27;8.27;;;;;;;-6.72;100.00;94176.47;2120864;27;20388;-80
2022/01/26 01:01:12;;;;;;;15.55;7.10;;;;;;;-6.75;100.00;94171.88;2106706;28;20020;-80
2022/01/26 01:02:13;;;;;;;11.25;6.93;;;;;;;-6.69;100.00;94181.13;2106146;28;20085;-80
2022/01/26 01:03:15;;;;;;;12.02;6.40;;;;;;;-6.63;100.00;94169.59;2114659;28;20024;-80
2022/01/26 01:04:16;;;;;;;13.52;6.50;;;;;;;-6.61;100.00;94172.69;2106002;28;20028;-80
2022/01/26 01:05:22;;;;;;;14.30;6.63;;;;;;;-6.61;100.00;94173.47;2101773;28;20085;-80
2022/01/26 01:06:29;;;;;;;16.30;6.97;;;;;;;-6.64;100.00;94179.22;2102805;28;20115;-80
2022/01/26 01:07:34;;;;;;;12.63;6.95;;;;;;;-6.68;100.00;94187.88;2104989;27;20023;-80
2022/01/26 01:08:35;;;;;;;14.70;6.68;;;;;;;-6.63;100.00;94170.38;2100496;28;20036;-80
2022/01/26 01:09:41;;;;;;;14.70;6.85;;;;;;;-6.60;100.00;94182.03;2108129;28;20027;-80
2022/01/26 01:10:45;;;;;;;12.98;7.07;;;;;;;-6.67;100.00;94179.00;2106386;28;20542;-80
2022/01/26 01:11:46;;;;;;;14.70;7.20;;;;;;;-6.55;100.00;94176.00;2098134;28;20100;-80
2022/01/26 01:12:49;;;;;;;10.45;6.90;;;;;;;-6.66;100.00;94181.34;2106067;28;20016;-80
2022/01/26 01:13:50;;;;;;;17.88;7.28;;;;;;;-6.65;100.00;94177.69;2106440;28;20031;-80
2022/01/26 01:14:51;;;;;;;13.35;6.65;;;;;;;-6.69;100.00;94178.53;2106096;27;20027;-80
2022/01/26 01:15:52;;;;;;;15.77;6.95;;;;;;;-6.65;100.00;94176.91;2122871;27;20026;-80
2022/01/26 01:16:57;;;;;;;15.10;7.78;;;;;;;-6.68;100.00;94180.84;2106214;28;20441;-80
2022/01/26 01:18:11;;;;;;;14.98;6.85;;;;;;;-6.79;100.00;94176.06;2119044;27;20064;-80
2022/01/26 01:19:39;;;;;;;15.75;6.93;;;;;;;-6.83;100.00;94178.47;2113302;28;20032;-80
2022/01/26 01:27:57;;;;;;;13.30;6.72;;;;;;;-6.79;100.00;94176.84;2118820;27;20023;-80
2022/01/26 01:29:11;;;;;;;12.68;6.30;;;;;;;-6.62;100.00;94176.38;2112614;27;20016;-80
2022/01/26 01:31:40;;;;;;;11.52;6.15;;;;;;;-6.82;100.00;94182.59;2107646;27;20451;-80
2022/01/26 01:32:51;;;;;;;13.60;7.05;;;;;;;-6.85;100.00;94177.94;2103572;28;20136;-80
2022/01/26 01:33:53;;;;;;;10.00;5.97;;;;;;;-6.90;100.00;94173.59;2114493;28;20510;-80
2022/01/26 01:34:54;;;;;;;15.15;6.28;;;;;;;-6.94;100.00;94175.19;2115145;27;20472;-80
2022/01/26 01:35:58;;;;;;;15.32;7.25;;;;;;;-6.91;100.00;94182.44;2109943;28;20107;-80
2022/01/26 01:37:03;;;;;;;14.05;6.53;;;;;;;-6.89;100.00;94180.34;2110883;27;20063;-80
2022/01/26 01:38:16;;;;;;;12.40;6.50;;;;;;;-6.87;100.00;94175.63;2121622;27;20102;-80
2022/01/26 01:39:18;;;;;;;12.73;5.80;;;;;;;-7.01;100.00;94179.22;2117928;27;20379;-80
2022/01/26 01:40:24;;;;;;;14.27;6.05;;;;;;;-6.90;100.00;94171.00;2110531;28;20024;-80
2022/01/26 01:41:25;;;;;;;15.75;6.90;;;;;;;-7.04;100.00;94171.97;2111240;27;20020;-80
2022/01/26 01:42:26;;;;;;;14.05;6.60;;;;;;;-7.05;100.00;94171.19;2110322;27;20020;-80
2022/01/26 01:43:28;;;;;;;14.52;6.55;;;;;;;-6.91;100.00;94177.25;2117693;27;20095;-80
2022/01/26 01:44:29;;;;;;;12.23;5.68;;;;;;;-6.93;100.00;94173.41;2102836;28;20480;-80
2022/01/26 01:45:41;;;;;;;9.32;5.22;;;;;;;-7.09;100.00;94175.41;2117290;27;20383;-80
2022/01/26 01:46:43;;;;;;;15.20;5.53;;;;;;;-7.01;100.00;94166.22;2119987;27;20023;-80
2022/01/26 01:47:44;;;;;;;11.85;5.40;;;;;;;-7.05;100.00;94173.81;2098679;28;20139;-80
2022/01/26 01:48:45;;;;;;;9.82;5.07;;;;;;;-6.90;100.00;94180.63;2103997;28;20020;-80
2022/01/26 01:49:45;;;;;;;11.48;5.78;;;;;;;-6.89;100.00;94175.16;2106708;28;20024;-80
2022/01/26 01:50:50;;;;;;;9.20;5.45;;;;;;;-6.97;100.00;94182.81;2114250;28;20428;-80
2022/01/26 01:51:55;;;;;;;10.50;5.38;;;;;;;-7.10;100.00;94184.25;2106242;28;20024;-81
2022/01/26 01:53:01;;;;;;;9.15;4.95;;;;;;;-6.96;100.00;94181.75;2106432;28;20024;-80
2022/01/26 01:54:03;;;;;;;14.20;5.85;;;;;;;-6.97;100.00;94182.81;2117173;27;20031;-80
2022/01/26 01:55:05;;;;;;;14.65;5.90;;;;;;;-7.05;100.00;94184.19;2120984;27;20455;-80
2022/01/26 01:56:09;;;;;;;9.88;5.20;;;;;;;-6.88;100.00;94187.09;2114313;28;20839;-80
2022/01/26 01:57:10;;;;;;;13.27;6.30;;;;;;;-6.94;100.00;94193.38;2116950;27;20051;-80
2022/01/26 01:58:12;;;;;;;11.90;6.28;;;;;;;-7.06;100.00;94187.84;2100115;28;20036;-80
2022/01/26 01:59:13;;;;;;;11.70;5.60;;;;;;;-6.90;100.00;94186.59;2109073;27;20372;-80
2022/01/26 02:00:14;;;;;;;10.30;5.53;;;;;;;-7.03;100.00;94186.50;2119356;27;20019;-81
2022/01/26 02:01:15;;;;;;;10.68;5.43;;;;;;;-7.14;100.00;94186.63;2109084;28;20452;-80
2022/01/26 02:02:24;;;;;;;10.68;6.03;;;;;;;-7.19;100.00;94181.50;2113872;27;20093;-80
2022/01/26 02:03:32;;;;;;;10.40;5.55;;;;;;;-7.23;100.00;94184.94;2110595;28;20788;-81
2022/01/26 02:04:40;;;;;;;10.50;5.38;;;;;;;-7.16;100.00;94180.16;2105192;27;20458;-81
2022/01/26 02:05:41;;;;;;;9.02;6.00;;;;;;;-7.20;100.00;94184.34;2100770;28;20461;-80
2022/01/26 02:06:43;;;;;;;12.55;6.28;;;;;;;-7.09;100.00;94178.00;2112805;28;20476;-81
2022/01/26 02:07:50;;;;;;;13.43;6.30;;;;;;;-7.10;100.00;94182.44;2107011;28;20049;-81
2022/01/26 02:08:51;;;;;;;9.88;6.43;;;;;;;-7.20;100.00;94181.75;2115058;27;20495;-81
2022/01/26 02:09:56;;;;;;;11.25;6.45;;;;;;;-7.18;100.00;94175.25;2105510;28;20827;-80
2022/01/26 02:10:57;;;;;;;11.57;6.38;;;;;;;-7.29;100.00;94173.03;2106512;28;20398;-81
2022/01/26 02:12:01;;;;;;;9.50;5.78;;;;;;;-7.23;100.00;94169.34;2105759;28;20055;-80
2022/01/26 02:13:15;;;;;;;12.70;6.40;;;;;;;-7.26;100.00;94175.09;2115179;27;20111;-81
2022/01/26 02:14:26;;;;;;;12.13;6.63;;;;;;;-7.16;100.00;94172.38;2112271;28;20069;-81
2022/01/26 02:15:36;;;;;;;9.75;6.20;;;;;;;-7.13;100.00;94169.22;2100049;28;20044;-81
2022/01/26 02:16:49;;;;;;;15.10;6.45;;;;;;;-7.13;100.00;94169.22;2098577;28;20029;-81
2022/01/26 02:18:12;;;;;;;11.18;5.38;;;;;;;-7.09;100.00;94170.22;2115302;28;20027;-81
2022/01/26 02:55:49;;;;;;;5.97;3.13;;;;;;;-7.51;100.00;94176.13;2106597;28;20446;-80
2022/01/26 03:02:02;;;;;;;6.28;3.30;;;;;;;-7.68;100.00;94173.97;2129452;27;20448;-79
2022/01/26 03:03:53;;;;;;;6.38;3.40;;;;;;;-7.61;100.00;94170.00;2116887;28;20438;-80
2022/01/26 03:04:57;;;;;;;9.57;3.60;;;;;;;-7.52;100.00;94172.00;2105751;28;20487;-81
2022/01/26 03:06:03;;;;;;;9.00;3.22;;;;;;;-7.47;100.00;94164.16;2098134;28;20447;-80
2022/01/26 03:07:15;;;;;;;7.82;3.15;;;;;;;-7.55;100.00;94165.56;2104417;28;20441;-80
2022/01/26 03:08:17;;;;;;;7.88;3.28;;;;;;;-7.53;100.00;94173.06;2091801;28;20523;-81
2022/01/26 03:09:24;;;;;;;9.02;3.50;;;;;;;-7.47;100.00;94161.56;2089470;28;20478;-80
2022/01/26 03:11:30;;;;;;;12.38;3.83;;;;;;;-7.71;100.00;94164.94;2098133;27;20491;-80
2022/01/26 03:12:40;;;;;;;8.88;3.78;;;;;;;-7.74;100.00;94157.69;2122768;27;20047;-80
2022/01/26 03:13:52;;;;;;;10.25;3.90;;;;;;;-7.68;100.00;94161.78;2110951;27;21092;-80
2022/01/26 03:14:58;;;;;;;8.15;3.33;;;;;;;-7.72;100.00;94154.84;2117848;27;20441;-81
2022/01/26 03:16:15;;;;;;;5.95;3.17;;;;;;;-7.72;100.00;94155.59;2116314;27;20445;-81
2022/01/26 03:17:47;;;;;;;7.57;3.08;;;;;;;-7.55;100.00;94144.00;2111373;27;20058;-79
2022/01/26 03:19:02;;;;;;;9.13;2.90;;;;;;;-7.56;100.00;94145.06;2117751;27;20789;-80
2022/01/26 03:20:14;;;;;;;7.93;3.50;;;;;;;-7.66;100.00;94145.94;2109632;27;20453;-81
2022/01/26 03:30:03;;;;;;;5.47;3.33;;;;;;;-7.49;100.00;94154.06;2123903;27;20544;-80
2022/01/26 03:33:52;;;;;;;6.95;3.30;;;;;;;-7.57;100.00;94159.09;2125921;27;20535;-81
2022/01/26 03:34:56;;;;;;;8.48;3.30;;;;;;;-7.49;100.00;94159.25;2102592;27;20495;-80
2022/01/26 03:35:59;;;;;;;7.28;3.67;;;;;;;-7.53;100.00;94165.28;2115279;28;20542;-81
2022/01/26 03:37:06;;;;;;;10.63;3.78;;;;;;;-7.39;100.00;94160.94;2108425;28;20456;-81
2022/01/26 03:38:09;;;;;;;7.40;2.92;;;;;;;-7.57;100.00;94159.09;2117165;27;21173;-80
2022/01/26 03:39:13;;;;;;;8.38;3.22;;;;;;;-7.71;100.00;94156.38;2115595;27;20214;-81
2022/01/26 03:40:15;;;;;;;9.10;3.13;;;;;;;-7.76;100.00;94153.84;2107747;27;20442;-81
2022/01/26 03:41:38;;;;;;;8.85;3.25;;;;;;;-7.76;100.00;94165.00;2115702;27;21014;-80
2022/01/26 03:42:41;;;;;;;8.25;3.22;;;;;;;-7.83;100.00;94172.31;2132571;27;20451;-81
2022/01/26 03:43:46;;;;;;;7.53;3.20;;;;;;;-7.72;100.00;94167.81;2123688;27;20158;-80
2022/01/26 03:44:47;;;;;;;6.78;3.20;;;;;;;-7.68;100.00;94171.38;2115779;28;20445;-81
2022/01/26 03:45:48;;;;;;;6.38;3.28;;;;;;;-7.84;100.00;94173.38;2115407;27;20519;-80
2022/01/26 03:46:59;;;;;;;5.88;3.22;;;;;;;-7.67;100.00;94163.34;2123552;27;20461;-80
2022/01/26 03:48:05;;;;;;;10.77;3.03;;;;;;;-7.67;100.00;94173.72;2102148;27;20024;-81
2022/01/26 03:49:08;;;;;;;7.78;3.15;;;;;;;-7.70;100.00;94166.47;2116953;27;20470;-80
2022/01/26 03:50:09;;;;;;;7.15;2.70;;;;;;;-7.74;100.00;94165.47;2123918;27;20460;-80
2022/01/26 03:51:12;;;;;;;8.07;3.33;;;;;;;-7.79;100.00;94169.94;2123733;27;20742;-81
2022/01/26 03:52:13;;;;;;;5.78;3.35;;;;;;;-7.77;100.00;94171.22;2115431;27;20453;-81
2022/01/26 03:53:14;;;;;;;7.60;2.75;;;;;;;-7.60;100.00;94166.34;2115111;28;20453;-80
2022/01/26 03:54:19;;;;;;;6.10;2.72;;;;;;;-7.71;100.00;94162.34;2103426;28;20032;-80
2022/01/26 03:55:20;;;;;;;4.85;2.78;;;;;;;-7.69;100.00;94160.22;2107449;28;20461;-81
2022/01/26 03:56:21;;;;;;;7.25;3.25;;;;;;;-7.75;100.00;94153.56;2123459;27;20448;-80
2022/01/26 03:57:22;;;;;;;10.10;3.28;;;;;;;-7.60;100.00;94155.97;2120743;27;20129;-80
2022/01/26 03:58:23;;;;;;;8.63;2.85;;;;;;;-7.72;100.00;94149.66;2102805;28;20461;-80
2022/01/26 03:59:24;;;;;;;6.93;3.10;;;;;;;-7.70;100.00;94144.94;2115054;27;20047;-80
2022/01/26 04:00:25;;;;;;;5.43;2.78;;;;;;;-7.79;100.00;94142.19;2110479;28;20077;-80
2022/01/26 04:01:26;;;;;;;8.63;2.72;;;;;;;-7.80;100.00;94143.22;2098483;28;20028;-80
2022/01/26 04:02:27;;;;;;;7.32;2.92;;;;;;;-7.80;100.00;94145.06;2098298;28;20527;-80
2022/01/26 04:03:28;;;;;;;7.75;3.10;;;;;;;-7.77;100.00;94144.47;2098340;28;20455;-80
2022/01/26 04:04:39;;;;;;;8.77;3.15;;;;;;;-7.73;100.00;94145.47;2103505;28;21094;-80
2022/01/26 04:05:40;;;;;;;4.93;2.38;;;;;;;-7.78;100.00;94140.34;2118001;27;20509;-80
2022/01/26 04:06:46;;;;;;;6.72;2.42;;;;;;;-7.79;100.00;94147.38;2115202;28;20461;-80
2022/01/26 04:07:55;;;;;;;8.68;3.78;;;;;;;-7.85;100.00;94143.28;2112324;28;20063;-80
2022/01/26 04:08:56;;;;;;;5.13;2.97;;;;;;;-7.79;100.00;94149.19;2107778;28;20512;-81
2022/01/26 04:10:15;;;;;;;6.57;3.30;;;;;;;-7.86;100.00;94149.50;2116600;27;20446;-80
2022/01/26 04:12:35;;;;;;;4.10;2.60;;;;;;;-7.86;100.00;94147.72;2125617;27;20443;-80
2022/01/26 04:13:43;;;;;;;6.43;2.40;;;;;;;-7.74;100.00;94144.72;2117220;27;20487;-81
2022/01/26 04:14:55;;;;;;;4.55;2.80;;;;;;;-7.83;100.00;94146.38;2108568;27;20791;-80
2022/01/26 04:16:03;;;;;;;6.60;2.75;;;;;;;-7.88;100.00;94141.22;2116559;27;20445;-80
2022/01/26 04:17:10;;;;;;;6.20;2.55;;;;;;;-7.92;100.00;94148.00;2124976;27;20502;-80
2022/01/26 04:18:20;;;;;;;7.30;2.75;;;;;;;-7.92;100.00;94143.59;2120547;27;20497;-80
2022/01/26 04:19:30;;;;;;;6.32;2.58;;;;;;;-7.87;100.00;94148.72;2120248;27;20459;-80
2022/01/26 04:20:42;;;;;;;8.17;2.60;;;;;;;-7.85;100.00;94148.47;2118008;27;20039;-80
2022/01/26 04:22:09;;;;;;;6.78;2.83;;;;;;;-7.86;100.00;94146.91;2119050;27;20432;-80
2022/01/26 04:23:23;;;;;;;6.72;2.75;;;;;;;-7.89;100.00;94150.06;2115352;27;20437;-80
2022/01/26 04:24:47;;;;;;;4.78;2.78;;;;;;;-7.89;100.00;94150.06;2125331;27;21022;-80
2022/01/26 04:25:51;;;;;;;5.97;2.85;;;;;;;-7.80;100.00;94164.00;2118124;27;20360;-81
2022/01/26 04:26:59;;;;;;;4.82;2.63;;;;;;;-7.89;100.00;94157.84;2099212;27;20024;-81
2022/01/26 04:28:20;;;;;;;5.30;2.75;;;;;;;-7.87;100.00;94172.09;2117196;27;20418;-81
2022/01/26 04:29:27;;;;;;;9.50;2.40;;;;;;;-7.82;100.00;94166.06;2113521;28;20464;-81
2022/01/26 04:30:31;;;;;;;6.97;2.72;;;;;;;-7.83;100.00;94167.13;2112450;27;20607;-81
2022/01/26 04:31:33;;;;;;;5.13;2.85;;;;;;;-7.62;100.00;94160.69;2101400;28;20478;-80
2022/01/26 04:32:36;;;;;;;6.43;3.33;;;;;;;-7.74;100.00;94167.31;2106885;27;20482;-81
2022/01/26 04:33:40;;;;;;;6.78;2.65;;;;;;;-7.88;100.00;94154.19;2117253;27;20937;-80
2022/01/26 04:34:41;;;;;;;7.38;2.60;;;;;;;-7.85;100.00;94153.66;2122276;27;20071;-81
2022/01/26 04:35:45;;;;;;;3.63;2.58;;;;;;;-7.88;100.00;94151.63;2114981;28;20503;-81
2022/01/26 04:39:02;;;;;;;5.75;2.67;;;;;;;-7.85;100.00;94148.47;2131994;27;20532;-80
2022/01/26 04:40:10;;;;;;;7.32;3.33;;;;;;;-7.91;100.00;94147.72;2122700;27;20432;-80
2022/01/26 04:42:38;;;;;;;6.03;2.83;;;;;;;-7.84;100.00;94142.22;2114014;27;21020;-81
2022/01/26 04:43:49;;;;;;;4.70;2.65;;;;;;;-7.90;100.00;94143.31;2116451;27;20453;-81
2022/01/26 04:45:07;;;;;;;8.23;3.30;;;;;;;-7.94;100.00;94150.91;2108128;28;20499;-80
2022/01/26 04:46:09;;;;;;;9.50;3.15;;;;;;;-7.94;100.00;94150.91;2098513;27;20537;-81
2022/01/26 04:47:11;;;;;;;4.80;2.67;;;;;;;-7.93;100.00;94155.03;2112214;28;20452;-81
2022/01/26 04:48:11;;;;;;;4.65;2.65;;;;;;;-7.86;100.00;94152.91;2095105;28;20852;-81
2022/01/26 04:49:12;;;;;;;7.07;3.00;;;;;;;-7.83;100.00;94155.97;2114850;27;20441;-81
2022/01/26 04:50:13;;;;;;;5.40;2.95;;;;;;;-7.85;100.00;94151.06;2110431;28;20094;-81
2022/01/26 04:51:14;;;;;;;5.13;3.22;;;;;;;-7.79;100.00;94154.38;2111618;28;20115;-80
2022/01/26 04:52:15;;;;;;;4.47;3.03;;;;;;;-7.83;100.00;94161.94;2100909;28;20994;-80
2022/01/26 04:53:16;;;;;;;4.53;2.90;;;;;;;-7.86;100.00;94162.47;2111321;28;20023;-80
2022/01/26 04:54:19;;;;;;;6.80;3.10;;;;;;;-7.73;100.00;94155.88;2104698;28;20015;-81
2022/01/26 04:55:20;;;;;;;4.90;3.15;;;;;;;-7.81;100.00;94159.06;2101496;28;20444;-80
2022/01/26 04:56:21;;;;;;;6.13;2.63;;;;;;;-7.82;100.00;94158.28;2105513;28;20098;-81
2022/01/26 04:57:28;;;;;;;7.00;3.22;;;;;;;-7.87;100.00;94151.31;2109234;28;20036;-81
2022/01/26 04:58:31;;;;;;;8.65;2.95;;;;;;;-7.81;100.00;94159.84;2107480;27;20034;-80
2022/01/26 04:59:32;;;;;;;4.10;2.40;;;;;;;-7.81;100.00;94153.88;2108898;28;20576;-80
2022/01/26 05:00:33;;;;;;;6.00;3.00;;;;;;;-7.90;100.00;94153.69;2116323;27;20476;-80
2022/01/26 05:01:34;;;;;;;4.38;2.80;;;;;;;-7.89;100.00;94150.84;2116324;27;20102;-80
2022/01/26 05:02:35;;;;;;;6.43;3.63;;;;;;;-7.86;100.00;94154.69;2128977;27;20855;-80
2022/01/26 05:03:36;;;;;;;8.23;3.53;;;;;;;-7.93;100.00;94143.88;2114756;28;20020;-81
2022/01/26 05:04:37;;;;;;;5.10;3.10;;;;;;;-7.94;100.00;94153.50;2107937;28;20453;-80
2022/01/26 05:05:38;;;;;;;6.18;3.58;;;;;;;-7.98;100.00;94149.13;2127318;27;20459;-80
2022/01/26 05:06:41;;;;;;;7.30;3.97;;;;;;;-8.00;100.00;94149.38;2116080;27;20592;-80
2022/01/26 05:07:46;;;;;;;6.25;3.83;;;;;;;-8.00;100.00;94149.38;2106560;27;20442;-80
2022/01/26 05:08:47;;;;;;;5.57;3.25;;;;;;;-7.99;100.00;94150.94;2122746;27;20109;-80
2022/01/26 05:09:48;;;;;;;5.75;3.75;;;;;;;-7.95;100.00;94162.28;2106611;28;20458;-81
2022/01/26 05:10:52;;;;;;;6.40;3.60;;;;;;;-7.92;100.00;94163.59;2109856;28;20044;-80
2022/01/26 05:11:54;;;;;;;7.43;3.83;;;;;;;-7.91;100.00;94150.31;2114096;28;20468;-80
2022/01/26 05:12:56;;;;;;;7.00;3.63;;;;;;;-7.87;100.00;94158.34;2097661;28;20991;-81
2022/01/26 05:13:58;;;;;;;7.95;4.05;;;;;;;-7.88;100.00;94151.63;2097675;28;20461;-80
2022/01/26 05:14:59;;;;;;;8.02;4.15;;;;;;;-7.93;100.00;94156.84;2105934;28;20842;-80
2022/01/26 05:16:00;;;;;;;8.27;4.22;;;;;;;-7.95;100.00;94156.34;2110025;28;20556;-80
2022/01/26 05:17:01;;;;;;;5.60;4.05;;;;;;;-7.94;100.00;94155.31;2098600;28;20027;-80
2022/01/26 05:18:05;;;;;;;9.25;4.55;;;;;;;-7.95;100.00;94157.09;2099031;27;20027;-81
2022/01/26 05:19:10;;;;;;;8.65;4.38;;;;;;;-7.99;100.00;94161.31;2115213;27;20494;-80
2022/01/26 05:20:12;;;;;;;7.72;4.40;;;;;;;-7.99;100.00;94163.91;2128796;27;20954;-80
2022/01/26 05:21:14;;;;;;;7.03;4.07;;;;;;;-7.85;100.00;94169.22;2117315;27;20468;-81
2022/01/26 05:22:17;;;;;;;10.18;4.25;;;;;;;-7.81;100.00;94175.44;2103282;28;20454;-80
2022/01/26 05:23:21;;;;;;;7.28;3.90;;;;;;;-7.87;100.00;94177.28;2106327;28;20434;-81
2022/01/26 05:24:22;;;;;;;7.13;4.47;;;;;;;-7.82;100.00;94162.69;2114071;27;20452;-81
2022/01/26 05:25:23;;;;;;;6.55;4.25;;;;;;;-7.74;100.00;94167.31;2110415;27;20042;-80
2022/01/26 05:26:24;;;;;;;6.57;4.28;;;;;;;-7.78;100.00;94172.25;2101644;28;20040;-81
2022/01/26 05:27:25;;;;;;;11.25;6.10;;;;;;;-7.82;100.00;94168.66;2097589;28;20024;-81
2022/01/26 05:28:26;;;;;;;8.32;5.93;;;;;;;-7.77;100.00;94170.44;2110536;28;20473;-82
2022/01/26 05:29:27;;;;;;;9.15;4.97;;;;;;;-7.74;100.00;94173.25;2117928;27;20068;-81
2022/01/26 05:30:28;;;;;;;7.78;4.88;;;;;;;-7.84;100.00;94164.81;2115768;27;20532;-81
2022/01/26 05:31:29;;;;;;;7.90;4.95;;;;;;;-7.93;100.00;94162.81;2107068;28;20476;-81
2022/01/26 05:32:30;;;;;;;10.90;4.93;;;;;;;-7.96;100.00;94157.38;2102523;28;20517;-81
2022/01/26 05:33:31;;;;;;;11.60;5.47;;;;;;;-7.87;100.00;94166.91;2100335;28;20124;-81
2022/01/26 05:34:32;;;;;;;12.18;5.20;;;;;;;-7.93;100.00;94160.22;2115210;27;20356;-80
2022/01/26 05:35:33;;;;;;;9.10;4.90;;;;;;;-7.92;100.00;94161.75;2097452;28;20468;-80
2022/01/26 05:36:34;;;;;;;10.70;5.07;;;;;;;-7.97;100.00;94158.44;2102513;28;20446;-81
2022/01/26 05:37:35;;;;;;;10.40;4.82;;;;;;;-8.02;100.00;94151.50;2105797;28;20457;-81
2022/01/26 05:38:36;;;;;;;7.35;4.47;;;;;;;-8.01;100.00;94160.03;2114217;28;20023;-80
2022/01/26 05:39:38;;;;;;;11.73;5.85;;;;;;;-7.88;100.00;94154.19;2131172;27;20045;-81
2022/01/26 05:40:41;;;;;;;8.18;4.68;;;;;;;-7.93;100.00;94151.66;2114440;28;20340;-81
2022/01/26 05:41:42;;;;;;;10.23;4.97;;;;;;;-7.99;100.00;94153.53;2115744;27;20027;-80
2022/01/26 05:42:43;;;;;;;9.18;5.10;;;;;;;-8.08;100.00;94149.97;2097454;28;20493;-81
2022/01/26 05:43:44;;;;;;;10.70;5.72;;;;;;;-8.00;100.00;94149.38;2097484;28;20473;-81
2022/01/26 05:44:45;;;;;;;9.98;5.18;;;;;;;-8.11;100.00;94153.13;2097457;28;20079;-80
2022/01/26 05:45:50;;;;;;;9.57;5.20;;;;;;;-8.08;100.00;94146.59;2097494;28;20443;-81
2022/01/26 05:46:51;;;;;;;10.95;4.95;;;;;;;-7.99;100.00;94152.75;2102875;28;20031;-81
2022/01/26 05:47:52;;;;;;;9.60;5.43;;;;;;;-8.11;100.00;94143.53;2115603;27;20730;-80
2022/01/26 05:48:55;;;;;;;10.73;5.68;;;;;;;-8.10;100.00;94149.47;2112035;28;20026;-80
2022/01/26 05:49:56;;;;;;;11.63;5.47;;;;;;;-8.05;100.00;94149.44;2097009;28;20607;-80
2022/01/26 05:51:05;;;;;;;12.38;6.43;;;;;;;-7.92;100.00;94151.38;2099969;28;20512;-81
2022/01/26 05:52:06;;;;;;;9.38;5.35;;;;;;;-8.05;100.00;94146.06;2104313;28;20120;-81
2022/01/26 05:53:07;;;;;;;9.77;5.63;;;;;;;-7.78;100.00;94148.91;2104751;28;20758;-80
2022/01/26 05:54:09;;;;;;;10.02;5.72;;;;;;;-7.99;100.00;94142.38;2108107;28;20460;-81
2022/01/26 05:55:10;;;;;;;10.63;5.55;;;;;;;-7.99;100.00;94142.38;2108900;28;20082;-81
2022/01/26 05:56:11;;;;;;;11.07;5.53;;;;;;;-8.04;100.00;94145.00;2100213;28;20810;-81
2022/01/26 05:57:12;;;;;;;13.65;6.03;;;;;;;-7.97;100.00;94138.47;2098879;28;20485;-80
2022/01/26 05:58:13;;;;;;;10.13;5.22;;;;;;;-7.95;100.00;94146.72;2107242;28;20027;-80
2022/01/26 05:59:17;;;;;;;9.88;4.70;;;;;;;-8.06;100.00;94145.28;2115496;27;20493;-81
2022/01/26 06:00:17;;;;;;;10.18;5.43;;;;;;;-8.09;100.00;94150.25;2116956;27;20510;-81
2022/01/26 06:01:20;;;;;;;10.55;4.88;;;;;;;-8.11;100.00;94155.72;2109531;28;20458;-80
2022/01/26 06:02:22;;;;;;;10.98;6.13;;;;;;;-8.14;100.00;94153.66;2107838;27;20081;-81
2022/01/26 06:03:23;;;;;;;9.95;5.57;;;;;;;-8.10;100.00;94157.25;2117317;27;20464;-81
2022/01/26 06:04:28;;;;;;;11.10;5.53;;;;;;;-8.08;100.00;94157.75;2112961;27;20513;-82
2022/01/26 06:05:29;;;;;;;11.40;5.72;;;;;;;-8.04;100.00;94160.56;2109177;28;20520;-81
2022/01/26 06:06:30;;;;;;;12.93;5.75;;;;;;;-8.11;100.00;94166.88;2110079;28;20464;-80
2022/01/26 06:07:31;;;;;;;9.95;5.93;;;;;;;-8.08;100.00;94169.94;2100017;28;20458;-82
2022/01/26 06:08:37;;;;;;;9.23;5.35;;;;;;;-8.11;100.00;94166.09;2101961;28;20020;-81
2022/01/26 06:09:39;;;;;;;10.07;5.10;;;;;;;-8.07;100.00;94171.50;2120667;27;20026;-80
2022/01/26 06:10:42;;;;;;;14.48;5.40;;;;;;;-8.04;100.00;94170.94;2117807;27;20457;-81
2022/01/26 06:11:43;;;;;;;11.15;5.57;;;;;;;-8.06;100.00;94166.03;2106265;28;21117;-82
2022/01/26 06:12:45;;;;;;;10.73;5.40;;;;;;;-8.24;100.00;94164.91;2108129;28;20492;-81
2022/01/26 06:13:46;;;;;;;7.68;4.78;;;;;;;-8.14;100.00;94164.03;2113568;28;20468;-80
2022/01/26 06:14:47;;;;;;;11.48;6.30;;;;;;;-8.11;100.00;94155.72;2113530;28;20445;-82
2022/01/26 06:15:48;;;;;;;7.82;5.28;;;;;;;-8.15;100.00;94152.91;2112415;28;20499;-81
2022/01/26 06:16:49;;;;;;;12.75;5.57;;;;;;;-8.18;100.00;94150.84;2108916;28;20494;-81
2022/01/26 06:17:50;;;;;;;10.13;5.85;;;;;;;-8.26;100.00;94148.06;2105501;28;20051;-81
2022/01/26 06:18:51;;;;;;;10.35;5.03;;;;;;;-8.19;100.00;94153.72;2113069;28;20016;-81
2022/01/26 06:19:52;;;;;;;17.08;8.27;;;;;;;-8.24;100.00;94148.56;2096660;28;21073;-81
2022/01/26 06:20:53;;;;;;;15.43;8.43;;;;;;;-8.26;100.00;94148.06;2104871;28;20027;-80
2022/01/26 06:21:54;;;;;;;15.07;7.82;;;;;;;-8.25;100.00;94145.22;2104759;27;20056;-80
2022/01/26 06:22:58;;;;;;;12.68;6.35;;;;;;;-8.25;100.00;94150.41;2121136;28;20523;-80
2022/01/26 06:23:59;;;;;;;15.30;6.97;;;;;;;-8.21;100.00;94150.59;2097053;28;20993;-81